Time;durP1;ratioP1;P1;durP2;ratioP2;P2;SDS_P1;SDS_P2;PMS_P1;PMS_P2;Temp;Humidity;BMP_temperature;BMP_pressure;BME280_temperature;BME280_humidity;BME280_pressure;Samples;Min_cycle;Max_cycle;Signal;HPM_P1;HPM_P2
2023/04/18 00:01:37;;;;;;;16.07;12.57;;;;;;;;;;6251746;22;20199;-71
2023/04/18 00:04:41;;;;;;;16.20;13.00;;;;;;;;;;6255158;23;20156;-70
2023/04/18 00:07:46;;;;;;;17.13;13.10;;;;;;;;;;6255284;23;20155;-70
2023/04/18 00:10:50;;;;;;;17.40;12.50;;;;;;;;;;6236490;22;20155;-69
2023/04/18 00:13:54;;;;;;;19.50;13.33;;;;;;;;;;6255903;23;20155;-69
2023/04/18 00:16:58;;;;;;;16.00;13.40;;;;;;;;;;6244739;23;20163;-69
2023/04/18 00:20:03;;;;;;;15.93;12.70;;;;;;;;;;6256967;23;20155;-69
2023/04/18 00:23:07;;;;;;;18.23;14.33;;;;;;;;;;6256897;23;20155;-69
2023/04/18 00:26:11;;;;;;;16.77;13.10;;;;;;;;;;6239442;23;20151;-69
2023/04/18 00:29:16;;;;;;;18.53;13.27;;;;;;;;;;6257166;23;20152;-69
2023/04/18 00:32:20;;;;;;;18.47;13.87;;;;;;;;;;6249164;22;20652;-70
2023/04/18 00:35:24;;;;;;;17.60;14.00;;;;;;;;;;6222104;23;20151;-70
2023/04/18 00:38:28;;;;;;;16.90;13.50;;;;;;;;;;6239382;23;20151;-70
2023/04/18 00:41:33;;;;;;;16.03;13.47;;;;;;;;;;6252381;22;20199;-70
2023/04/18 00:44:37;;;;;;;17.10;13.10;;;;;;;;;;6257997;23;20155;-70
2023/04/18 00:47:41;;;;;;;16.50;12.63;;;;;;;;;;6239195;23;20151;-71
2023/04/18 00:50:45;;;;;;;18.37;13.33;;;;;;;;;;6255687;22;20155;-71
2023/04/18 00:53:50;;;;;;;16.90;13.13;;;;;;;;;;6239469;23;20160;-69
2023/04/18 00:56:54;;;;;;;17.90;13.80;;;;;;;;;;6256516;23;20156;-70
2023/04/18 01:00:00;;;;;;;16.13;12.93;;;;;;;;;;6239391;23;20156;-70
2023/04/18 01:03:07;;;;;;;17.87;13.70;;;;;;;;;;6256744;23;20156;-70
2023/04/18 01:06:11;;;;;;;17.13;13.30;;;;;;;;;;6257770;23;20156;-70
2023/04/18 01:09:15;;;;;;;18.37;13.30;;;;;;;;;;6258086;23;20152;-69
2023/04/18 01:12:21;;;;;;;19.07;14.13;;;;;;;;;;6249014;22;20188;-70
2023/04/18 01:15:26;;;;;;;17.23;12.50;;;;;;;;;;6257327;23;20156;-70
2023/04/18 01:18:30;;;;;;;18.47;13.63;;;;;;;;;;6256514;23;20159;-71
2023/04/18 01:21:35;;;;;;;17.37;13.03;;;;;;;;;;6252208;22;20195;-70
2023/04/18 01:24:40;;;;;;;17.57;13.97;;;;;;;;;;6256282;23;20155;-70
2023/04/18 01:27:46;;;;;;;18.33;14.00;;;;;;;;;;6222155;23;20152;-71
2023/04/18 01:30:50;;;;;;;17.73;13.73;;;;;;;;;;6254913;22;20151;-71
2023/04/18 01:33:54;;;;;;;20.70;13.77;;;;;;;;;;6238697;23;20152;-70
2023/04/18 01:36:59;;;;;;;18.67;14.13;;;;;;;;;;6256552;23;20156;-70
2023/04/18 01:40:03;;;;;;;20.13;13.50;;;;;;;;;;6256155;23;20155;-71
2023/04/18 01:43:07;;;;;;;18.83;13.97;;;;;;;;;;6256372;23;20184;-71
2023/04/18 01:46:15;;;;;;;19.03;14.23;;;;;;;;;;6239712;23;20156;-70
2023/04/18 01:49:19;;;;;;;21.27;14.50;;;;;;;;;;6256186;23;20156;-71
2023/04/18 01:52:23;;;;;;;21.00;13.97;;;;;;;;;;6246930;22;20195;-71
2023/04/18 01:55:28;;;;;;;20.63;15.40;;;;;;;;;;6238697;23;20156;-71
2023/04/18 01:58:32;;;;;;;20.93;15.67;;;;;;;;;;6257669;23;20155;-70
2023/04/18 02:01:36;;;;;;;22.83;15.30;;;;;;;;;;6251563;22;20509;-71
2023/04/18 02:04:40;;;;;;;19.93;14.33;;;;;;;;;;6255966;23;20155;-71
2023/04/18 02:07:48;;;;;;;22.37;15.97;;;;;;;;;;6239273;23;20156;-71
2023/04/18 02:10:53;;;;;;;19.50;15.10;;;;;;;;;;6254581;22;20155;-70
2023/04/18 02:13:58;;;;;;;23.13;15.23;;;;;;;;;;6256202;23;20589;-69
2023/04/18 02:17:02;;;;;;;22.57;15.43;;;;;;;;;;6255732;23;20156;-70
2023/04/18 02:20:07;;;;;;;21.03;15.37;;;;;;;;;;6255735;23;20156;-71
2023/04/18 02:23:11;;;;;;;23.70;16.13;;;;;;;;;;6255606;23;20184;-70
2023/04/18 02:26:15;;;;;;;24.10;15.40;;;;;;;;;;6256733;23;20156;-69
2023/04/18 02:29:19;;;;;;;23.73;15.90;;;;;;;;;;6256080;23;20156;-70
2023/04/18 02:32:23;;;;;;;21.07;15.43;;;;;;;;;;6247806;22;20183;-70
2023/04/18 02:35:28;;;;;;;22.33;15.23;;;;;;;;;;6255596;23;20152;-71
2023/04/18 02:38:32;;;;;;;26.07;16.37;;;;;;;;;;6255914;23;20159;-70
2023/04/18 02:41:38;;;;;;;21.90;15.27;;;;;;;;;;6250904;22;20195;-70
2023/04/18 02:44:41;;;;;;;22.77;16.53;;;;;;;;;;6256470;23;20155;-70
2023/04/18 02:47:46;;;;;;;24.50;17.00;;;;;;;;;;6238072;23;20155;-71
2023/04/18 02:51:02;;;;;;;23.37;16.87;;;;;;;;;;6253933;22;20195;-71
2023/04/18 02:54:07;;;;;;;25.33;16.30;;;;;;;;;;6255410;23;20147;-70
2023/04/18 02:57:26;;;;;;;24.77;16.73;;;;;;;;;;6255708;23;20156;-71
2023/04/18 03:00:51;;;;;;;23.67;17.20;;;;;;;;;;6254586;22;20593;-71
2023/04/18 03:04:08;;;;;;;29.20;18.10;;;;;;;;;;6255569;23;20152;-70
2023/04/18 03:07:19;;;;;;;26.87;18.13;;;;;;;;;;6238148;23;20156;-71
2023/04/18 03:10:25;;;;;;;25.27;17.37;;;;;;;;;;6255495;23;20625;-70
2023/04/18 03:13:29;;;;;;;26.83;17.13;;;;;;;;;;6255259;23;20147;-70
2023/04/18 03:16:33;;;;;;;28.67;18.33;;;;;;;;;;6245326;23;20167;-71
2023/04/18 03:19:39;;;;;;;25.90;17.57;;;;;;;;;;6255252;23;20156;-71
2023/04/18 03:22:46;;;;;;;25.87;18.10;;;;;;;;;;6229673;23;20195;-71
2023/04/18 03:25:53;;;;;;;26.43;17.77;;;;;;;;;;6255406;23;20156;-70
2023/04/18 03:28:59;;;;;;;26.53;18.33;;;;;;;;;;6255203;23;20151;-71
2023/04/18 03:32:03;;;;;;;31.37;17.90;;;;;;;;;;6248788;22;20647;-71
2023/04/18 03:35:08;;;;;;;27.73;18.63;;;;;;;;;;6255230;23;20155;-71
2023/04/18 03:38:12;;;;;;;24.90;16.60;;;;;;;;;;6237959;23;20155;-71
2023/04/18 03:41:17;;;;;;;27.03;18.87;;;;;;;;;;6234542;22;20191;-71
2023/04/18 03:44:21;;;;;;;27.60;18.80;;;;;;;;;;6237594;23;20159;-70
2023/04/18 03:47:26;;;;;;;27.50;19.13;;;;;;;;;;6227788;23;20171;-71
2023/04/18 03:50:36;;;;;;;28.20;17.90;;;;;;;;;;6227934;23;20171;-70
2023/04/18 03:53:43;;;;;;;30.53;18.77;;;;;;;;;;6261927;22;20202;-73
2023/04/18 03:56:48;;;;;;;27.73;18.30;;;;;;;;;;6270254;22;20150;-73
2023/04/18 03:59:53;;;;;;;26.07;17.50;;;;;;;;;;6288220;22;20151;-73
2023/04/18 04:02:58;;;;;;;28.43;17.70;;;;;;;;;;6260051;22;20194;-73
2023/04/18 04:06:02;;;;;;;29.37;17.67;;;;;;;;;;6260080;22;20170;-73
2023/04/18 04:09:06;;;;;;;28.83;18.27;;;;;;;;;;6260203;22;20174;-73
2023/04/18 04:12:10;;;;;;;26.67;18.00;;;;;;;;;;6263528;22;20187;-73
2023/04/18 04:15:15;;;;;;;28.67;18.10;;;;;;;;;;6270456;22;20154;-73
2023/04/18 04:18:29;;;;;;;27.70;18.17;;;;;;;;;;6270355;22;20285;-73
2023/04/18 04:21:35;;;;;;;30.77;19.30;;;;;;;;;;6248037;22;20187;-73
2023/04/18 04:24:40;;;;;;;28.07;18.67;;;;;;;;;;6269996;22;20155;-73
2023/04/18 04:27:45;;;;;;;31.37;19.80;;;;;;;;;;6269979;22;20147;-73
2023/04/18 04:30:52;;;;;;;30.20;19.70;;;;;;;;;;6268794;22;20151;-73
2023/04/18 04:33:57;;;;;;;31.90;19.30;;;;;;;;;;6269877;22;20151;-73
2023/04/18 04:37:02;;;;;;;31.40;19.37;;;;;;;;;;6270194;22;20155;-73
2023/04/18 04:40:09;;;;;;;33.60;20.37;;;;;;;;;;6252347;22;20154;-73
2023/04/18 04:43:23;;;;;;;34.07;18.20;;;;;;;;;;6259785;22;20195;-72
2023/04/18 04:46:29;;;;;;;32.77;19.23;;;;;;;;;;6270074;22;20154;-75
2023/04/18 04:49:33;;;;;;;28.67;19.30;;;;;;;;;;6269736;22;20151;-73
2023/04/18 04:52:39;;;;;;;28.50;18.13;;;;;;;;;;6279399;22;20642;-73
2023/04/18 04:55:43;;;;;;;34.33;21.33;;;;;;;;;;6288433;22;20151;-73
2023/04/18 04:58:48;;;;;;;31.70;19.13;;;;;;;;;;6252249;22;20155;-73
2023/04/18 05:02:00;;;;;;;29.83;20.13;;;;;;;;;;6259692;22;20187;-72
2023/04/18 05:05:04;;;;;;;32.83;19.93;;;;;;;;;;6269394;22;20151;-73
2023/04/18 05:08:09;;;;;;;32.43;19.80;;;;;;;;;;6269713;22;20155;-73
2023/04/18 05:11:13;;;;;;;38.77;22.47;;;;;;;;;;6285725;22;20187;-72
2023/04/18 05:14:17;;;;;;;37.03;23.47;;;;;;;;;;6269744;22;20147;-73
2023/04/18 05:17:21;;;;;;;33.73;20.07;;;;;;;;;;6287084;22;20155;-73
2023/04/18 05:20:25;;;;;;;29.23;19.33;;;;;;;;;;6288235;22;20155;-73
2023/04/18 05:23:29;;;;;;;31.67;19.30;;;;;;;;;;6288297;22;20182;-73
2023/04/18 05:26:33;;;;;;;32.37;18.97;;;;;;;;;;6288028;22;20150;-73
2023/04/18 05:29:37;;;;;;;27.70;18.07;;;;;;;;;;6269694;22;20155;-73
2023/04/18 05:32:41;;;;;;;26.43;17.90;;;;;;;;;;6279147;22;20187;-73
2023/04/18 05:35:47;;;;;;;27.70;18.23;;;;;;;;;;6258951;22;20635;-73
2023/04/18 05:38:51;;;;;;;39.07;25.47;;;;;;;;;;6269588;22;20154;-73
2023/04/18 05:41:55;;;;;;;28.93;18.23;;;;;;;;;;6277438;22;20191;-73
2023/04/18 05:44:59;;;;;;;29.73;17.37;;;;;;;;;;6277775;22;20171;-73
2023/04/18 05:48:04;;;;;;;28.53;17.57;;;;;;;;;;6287670;22;20457;-73
2023/04/18 05:51:07;;;;;;;28.70;18.60;;;;;;;;;;6285215;22;20190;-73
2023/04/18 05:54:11;;;;;;;28.23;17.33;;;;;;;;;;6279319;22;20174;-73
2023/04/18 05:57:15;;;;;;;24.37;16.57;;;;;;;;;;6287982;22;20155;-73
2023/04/18 06:00:20;;;;;;;26.87;17.73;;;;;;;;;;6287010;22;20154;-75
2023/04/18 06:03:23;;;;;;;31.00;18.40;;;;;;;;;;6268816;22;20182;-76
2023/04/18 06:06:28;;;;;;;26.20;18.50;;;;;;;;;;6277583;22;20166;-75
2023/04/18 06:09:32;;;;;;;28.73;16.67;;;;;;;;;;6277501;22;20166;-75
2023/04/18 06:12:36;;;;;;;24.03;16.07;;;;;;;;;;6278846;22;20182;-75
2023/04/18 06:15:40;;;;;;;27.63;17.07;;;;;;;;;;6269199;22;20457;-75
2023/04/18 06:18:44;;;;;;;25.97;16.30;;;;;;;;;;6287308;22;20155;-75
2023/04/18 06:21:49;;;;;;;26.47;16.03;;;;;;;;;;6263656;22;20191;-75
2023/04/18 06:24:54;;;;;;;26.07;16.23;;;;;;;;;;6251715;22;20155;-75
2023/04/18 06:27:59;;;;;;;26.50;16.23;;;;;;;;;;6287728;22;20453;-75
2023/04/18 06:31:03;;;;;;;25.47;16.33;;;;;;;;;;6285626;22;20488;-75
2023/04/18 06:34:07;;;;;;;26.80;16.30;;;;;;;;;;6268936;22;20155;-75
2023/04/18 06:37:11;;;;;;;27.77;17.13;;;;;;;;;;6287609;22;20155;-75
2023/04/18 06:40:15;;;;;;;28.33;17.27;;;;;;;;;;6268905;22;20151;-75
2023/04/18 06:43:20;;;;;;;25.57;16.57;;;;;;;;;;6258639;22;20198;-75
2023/04/18 06:46:25;;;;;;;26.60;16.30;;;;;;;;;;6268952;22;20155;-75
2023/04/18 06:49:29;;;;;;;26.20;16.80;;;;;;;;;;6287318;22;20151;-76
2023/04/18 06:52:35;;;;;;;28.00;17.23;;;;;;;;;;6278410;22;20190;-76
2023/04/18 06:55:40;;;;;;;25.20;16.73;;;;;;;;;;6287347;22;20159;-76
2023/04/18 06:58:44;;;;;;;28.67;17.33;;;;;;;;;;6268755;22;20588;-75
2023/04/18 07:01:50;;;;;;;30.87;18.13;;;;;;;;;;6281776;22;20186;-75
2023/04/18 07:04:53;;;;;;;32.73;18.33;;;;;;;;;;6287124;22;20635;-75
2023/04/18 07:07:58;;;;;;;25.33;15.73;;;;;;;;;;6287055;22;20151;-75
2023/04/18 07:11:03;;;;;;;27.33;16.93;;;;;;;;;;6285034;22;20186;-76
2023/04/18 07:14:07;;;;;;;29.50;16.83;;;;;;;;;;6251589;22;20154;-75
2023/04/18 07:17:11;;;;;;;28.03;18.43;;;;;;;;;;6287291;22;20155;-75
2023/04/18 07:20:15;;;;;;;26.70;17.37;;;;;;;;;;6233688;22;20151;-74
2023/04/18 07:23:19;;;;;;;24.00;16.03;;;;;;;;;;6268421;22;20182;-74
2023/04/18 07:26:23;;;;;;;26.43;14.63;;;;;;;;;;6287004;22;20154;-73
2023/04/18 07:29:27;;;;;;;26.77;16.60;;;;;;;;;;6287119;22;20159;-74
2023/04/18 07:32:31;;;;;;;23.87;15.63;;;;;;;;;;6278575;22;20186;-73
2023/04/18 07:35:35;;;;;;;23.90;15.07;;;;;;;;;;6286883;22;20147;-74
2023/04/18 07:38:40;;;;;;;22.47;14.60;;;;;;;;;;6286942;22;20151;-73
2023/04/18 07:41:43;;;;;;;23.60;14.53;;;;;;;;;;6281840;22;20197;-74
2023/04/18 07:44:48;;;;;;;21.23;14.80;;;;;;;;;;6287055;22;20189;-73
2023/04/18 07:47:52;;;;;;;17.00;12.47;;;;;;;;;;6276857;22;20193;-73
2023/04/18 07:50:56;;;;;;;19.87;13.00;;;;;;;;;;6285221;22;20519;-75
2023/04/18 07:54:01;;;;;;;18.93;12.03;;;;;;;;;;6279219;22;20645;-73
2023/04/18 07:57:05;;;;;;;21.50;12.80;;;;;;;;;;6268398;22;20610;-73
2023/04/18 08:00:11;;;;;;;20.10;12.23;;;;;;;;;;6276690;22;20185;-73
2023/04/18 08:03:18;;;;;;;17.90;11.83;;;;;;;;;;6268530;22;20190;-73
2023/04/18 08:06:22;;;;;;;15.90;11.47;;;;;;;;;;6287026;22;20162;-74
2023/04/18 08:09:25;;;;;;;16.50;10.53;;;;;;;;;;6268368;22;20611;-74
2023/04/18 08:12:30;;;;;;;16.80;11.67;;;;;;;;;;6278399;22;20687;-73
2023/04/18 08:15:34;;;;;;;17.03;11.13;;;;;;;;;;6287041;22;20488;-74
2023/04/18 08:18:38;;;;;;;14.30;11.03;;;;;;;;;;6257760;22;20174;-73
2023/04/18 08:21:42;;;;;;;16.80;10.80;;;;;;;;;;6281676;22;20193;-73
2023/04/18 08:24:47;;;;;;;15.97;10.93;;;;;;;;;;6268156;22;20186;-73
2023/04/18 08:27:51;;;;;;;17.00;11.73;;;;;;;;;;6258075;22;20507;-73
2023/04/18 08:30:55;;;;;;;17.33;11.27;;;;;;;;;;6285324;22;20205;-74
2023/04/18 08:34:00;;;;;;;16.77;10.77;;;;;;;;;;6286927;22;20158;-73
2023/04/18 08:37:04;;;;;;;16.33;10.77;;;;;;;;;;6286919;22;20245;-73
2023/04/18 08:40:08;;;;;;;14.43;10.20;;;;;;;;;;6286734;22;20162;-74
2023/04/18 08:43:14;;;;;;;15.20;10.57;;;;;;;;;;6288798;22;20158;-73
2023/04/18 08:46:18;;;;;;;17.73;11.20;;;;;;;;;;6288867;22;20166;-73
2023/04/18 08:49:23;;;;;;;14.80;9.83;;;;;;;;;;6288454;22;20162;-73
2023/04/18 08:52:29;;;;;;;17.43;11.50;;;;;;;;;;6261630;22;20194;-74
2023/04/18 08:55:34;;;;;;;17.73;12.00;;;;;;;;;;6269890;22;20154;-74
2023/04/18 08:58:39;;;;;;;15.13;10.03;;;;;;;;;;6288313;22;20158;-73
2023/04/18 09:01:57;;;;;;;17.47;10.97;;;;;;;;;;6283791;22;20254;-74
2023/04/18 09:05:09;;;;;;;18.60;11.67;;;;;;;;;;6288237;22;20242;-74
2023/04/18 09:08:22;;;;;;;15.43;10.53;;;;;;;;;;6288509;22;20615;-73
2023/04/18 09:11:30;;;;;;;16.90;11.20;;;;;;;;;;6278149;22;20674;-73
2023/04/18 09:14:41;;;;;;;18.80;11.57;;;;;;;;;;6269819;22;20154;-75
2023/04/18 09:17:54;;;;;;;18.70;11.73;;;;;;;;;;6269984;22;20154;-74
2023/04/18 09:21:17;;;;;;;17.27;11.67;;;;;;;;;;6267923;22;20685;-75
2023/04/18 09:24:23;;;;;;;17.60;12.20;;;;;;;;;;6288246;22;20186;-75
2023/04/18 09:27:33;;;;;;;16.93;11.23;;;;;;;;;;6288392;22;20166;-75
2023/04/18 09:30:39;;;;;;;16.30;10.97;;;;;;;;;;6287685;22;20495;-74
2023/04/18 09:33:53;;;;;;;15.57;10.73;;;;;;;;;;6269605;22;20479;-75
2023/04/18 09:37:08;;;;;;;18.20;11.03;;;;;;;;;;6252015;22;20177;-75
2023/04/18 09:40:20;;;;;;;15.60;10.60;;;;;;;;;;6288185;22;20619;-75
2023/04/18 09:43:24;;;;;;;18.67;11.07;;;;;;;;;;6269516;22;20158;-75
2023/04/18 09:46:28;;;;;;;16.57;11.53;;;;;;;;;;6269464;22;20162;-75
2023/04/18 09:49:32;;;;;;;16.33;10.23;;;;;;;;;;6287904;22;20158;-75
2023/04/18 09:52:41;;;;;;;15.87;10.00;;;;;;;;;;6276877;22;20201;-75
2023/04/18 09:55:48;;;;;;;16.33;11.00;;;;;;;;;;6248709;22;20218;-70
2023/04/18 09:59:06;;;;;;;15.20;10.13;;;;;;;;;;6257368;23;20163;-70
2023/04/18 10:02:15;;;;;;;18.23;10.53;;;;;;;;;;6246746;22;20194;-70
2023/04/18 10:05:22;;;;;;;15.37;10.70;;;;;;;;;;6256833;23;20508;-70
2023/04/18 10:08:27;;;;;;;14.63;9.20;;;;;;;;;;6228626;23;20492;-69
2023/04/18 10:11:31;;;;;;;15.43;9.53;;;;;;;;;;6234307;22;20187;-71
2023/04/18 10:14:38;;;;;;;15.97;10.33;;;;;;;;;;6221494;23;20152;-70
2023/04/18 10:17:44;;;;;;;14.17;9.77;;;;;;;;;;6228713;23;20208;-70
2023/04/18 10:20:49;;;;;;;15.73;10.10;;;;;;;;;;6255985;22;20156;-70
2023/04/18 10:23:53;;;;;;;15.13;10.13;;;;;;;;;;6256666;23;20191;-70
2023/04/18 10:26:57;;;;;;;15.67;10.60;;;;;;;;;;6211131;23;20174;-70
2023/04/18 10:30:01;;;;;;;19.30;10.37;;;;;;;;;;6246740;23;20182;-70
2023/04/18 10:33:34;;;;;;;16.33;11.23;;;;;;;;;;6220860;23;20166;-70
2023/04/18 10:37:04;;;;;;;14.20;9.87;;;;;;;;;;6256998;23;20155;-70
2023/04/18 10:40:09;;;;;;;14.73;10.33;;;;;;;;;;6256745;23;20592;-70
2023/04/18 10:43:14;;;;;;;13.07;8.37;;;;;;;;;;6256901;23;20159;-70
2023/04/18 10:46:17;;;;;;;12.87;8.87;;;;;;;;;;6257207;23;20449;-71
2023/04/18 10:49:23;;;;;;;11.93;8.47;;;;;;;;;;6257091;23;20147;-71
2023/04/18 10:52:28;;;;;;;11.67;7.77;;;;;;;;;;6248381;22;20191;-71
2023/04/18 10:55:33;;;;;;;12.73;8.63;;;;;;;;;;6249375;23;20175;-71
2023/04/18 10:58:40;;;;;;;12.50;8.97;;;;;;;;;;6220785;23;20156;-70
2023/04/18 11:01:47;;;;;;;12.23;8.40;;;;;;;;;;6246470;22;20187;-70
2023/04/18 11:04:53;;;;;;;11.93;8.60;;;;;;;;;;6245514;23;20672;-70
2023/04/18 11:07:57;;;;;;;11.43;8.30;;;;;;;;;;6220605;23;20156;-70
2023/04/18 11:11:05;;;;;;;10.43;8.20;;;;;;;;;;6254174;22;20187;-70
2023/04/18 11:14:10;;;;;;;14.20;8.53;;;;;;;;;;6237901;23;20152;-70
2023/04/18 11:17:22;;;;;;;11.80;8.37;;;;;;;;;;6256332;23;20155;-70
2023/04/18 11:20:27;;;;;;;9.97;7.73;;;;;;;;;;6237551;23;20155;-70
2023/04/18 11:23:31;;;;;;;10.30;6.97;;;;;;;;;;6256419;23;20462;-70
2023/04/18 11:26:37;;;;;;;8.63;7.07;;;;;;;;;;6220104;23;20159;-70
2023/04/18 11:29:41;;;;;;;9.40;6.90;;;;;;;;;;6256294;23;20152;-70
2023/04/18 11:32:45;;;;;;;9.40;6.53;;;;;;;;;;6211422;23;20509;-70
2023/04/18 11:35:49;;;;;;;9.83;6.70;;;;;;;;;;6256227;23;20151;-70
2023/04/18 11:38:55;;;;;;;10.47;6.73;;;;;;;;;;6256278;23;20155;-70
2023/04/18 11:42:00;;;;;;;10.07;7.23;;;;;;;;;;6250154;22;20191;-70
2023/04/18 11:45:14;;;;;;;10.80;6.53;;;;;;;;;;6246164;23;20191;-70
2023/04/18 11:48:18;;;;;;;8.17;6.13;;;;;;;;;;6255876;23;20156;-70
2023/04/18 11:51:42;;;;;;;7.73;6.50;;;;;;;;;;6252731;22;20191;-70
2023/04/18 11:54:46;;;;;;;8.87;6.63;;;;;;;;;;6252309;23;20175;-70
2023/04/18 11:57:53;;;;;;;8.67;5.90;;;;;;;;;;6237817;23;20152;-70
2023/04/18 12:00:57;;;;;;;10.33;7.30;;;;;;;;;;6254529;22;20187;-70
2023/04/18 12:04:06;;;;;;;8.20;6.20;;;;;;;;;;6220226;23;20155;-70
2023/04/18 12:07:10;;;;;;;10.43;6.97;;;;;;;;;;6246416;23;20167;-70
2023/04/18 12:10:20;;;;;;;7.37;6.00;;;;;;;;;;6227500;23;20167;-70
2023/04/18 12:13:30;;;;;;;9.20;7.20;;;;;;;;;;6237756;23;20156;-70
2023/04/18 12:16:34;;;;;;;9.33;6.60;;;;;;;;;;6257225;23;20148;-70
2023/04/18 12:19:44;;;;;;;7.60;6.30;;;;;;;;;;6258089;23;20156;-70
2023/04/18 12:22:49;;;;;;;7.50;6.07;;;;;;;;;;6211945;23;20187;-70
2023/04/18 12:26:05;;;;;;;9.03;6.30;;;;;;;;;;6258151;23;20179;-70
2023/04/18 12:29:10;;;;;;;7.97;6.30;;;;;;;;;;6258291;23;20156;-70
2023/04/18 12:32:15;;;;;;;9.20;6.57;;;;;;;;;;6250846;22;20191;-70
2023/04/18 12:35:20;;;;;;;8.00;6.50;;;;;;;;;;6257798;23;20156;-70
2023/04/18 12:38:25;;;;;;;10.47;7.07;;;;;;;;;;6239625;23;20156;-70
2023/04/18 12:41:30;;;;;;;9.30;7.03;;;;;;;;;;6229168;22;20644;-70
2023/04/18 12:44:34;;;;;;;11.00;8.13;;;;;;;;;;6247960;23;20195;-70
2023/04/18 12:47:40;;;;;;;9.53;7.37;;;;;;;;;;6229025;23;20171;-70
2023/04/18 12:50:44;;;;;;;10.03;6.67;;;;;;;;;;6229082;22;20167;-70
2023/04/18 12:53:48;;;;;;;9.37;6.77;;;;;;;;;;6218821;23;20612;-71
2023/04/18 12:56:52;;;;;;;16.20;8.00;;;;;;;;;;6247577;23;20477;-69
2023/04/18 12:59:56;;;;;;;9.17;7.23;;;;;;;;;;6229416;23;20168;-69
2023/04/18 13:03:00;;;;;;;8.93;7.33;;;;;;;;;;6257688;23;20151;-70
2023/04/18 13:06:05;;;;;;;11.43;7.63;;;;;;;;;;6257705;23;20183;-70
2023/04/18 13:09:09;;;;;;;8.70;7.23;;;;;;;;;;6239626;23;20152;-70
2023/04/18 13:12:13;;;;;;;10.67;7.83;;;;;;;;;;6214737;23;20191;-71
2023/04/18 13:15:21;;;;;;;10.87;8.30;;;;;;;;;;6257207;23;20148;-70
2023/04/18 13:18:26;;;;;;;9.70;8.47;;;;;;;;;;6257521;23;20174;-70
2023/04/18 13:21:30;;;;;;;10.03;7.80;;;;;;;;;;6211356;22;20191;-71
2023/04/18 13:24:35;;;;;;;9.10;7.67;;;;;;;;;;6247347;23;20167;-70
2023/04/18 13:27:40;;;;;;;10.93;7.90;;;;;;;;;;6257241;23;20151;-70
2023/04/18 13:30:44;;;;;;;11.03;8.30;;;;;;;;;;6220658;22;20151;-71
2023/04/18 13:33:48;;;;;;;9.93;8.00;;;;;;;;;;6238557;23;20151;-70
2023/04/18 13:36:53;;;;;;;11.83;9.23;;;;;;;;;;6257697;23;20152;-70
2023/04/18 13:39:57;;;;;;;11.67;8.93;;;;;;;;;;6257345;23;20464;-70
2023/04/18 13:43:01;;;;;;;10.97;8.40;;;;;;;;;;6257633;23;20152;-70
2023/04/18 13:46:05;;;;;;;11.37;8.30;;;;;;;;;;6257345;23;20184;-70
2023/04/18 13:49:09;;;;;;;15.30;8.77;;;;;;;;;;6256923;23;20156;-70
2023/04/18 13:52:13;;;;;;;14.73;7.80;;;;;;;;;;6249968;22;20191;-70
2023/04/18 13:55:18;;;;;;;9.60;7.77;;;;;;;;;;6251119;23;20175;-70
2023/04/18 13:58:22;;;;;;;9.17;6.87;;;;;;;;;;6257117;23;20156;-70
2023/04/18 14:01:26;;;;;;;9.10;7.53;;;;;;;;;;6234773;22;20477;-70
2023/04/18 14:04:31;;;;;;;10.43;8.13;;;;;;;;;;6257032;23;20156;-70
2023/04/18 14:07:37;;;;;;;10.20;7.73;;;;;;;;;;6257027;23;20152;-70
2023/04/18 14:10:40;;;;;;;10.33;7.93;;;;;;;;;;6256324;22;20155;-70
2023/04/18 14:13:44;;;;;;;14.23;8.83;;;;;;;;;;6257075;23;20589;-71
2023/04/18 14:16:49;;;;;;;10.80;8.73;;;;;;;;;;6257055;23;20152;-70
2023/04/18 14:19:53;;;;;;;10.77;8.30;;;;;;;;;;6228620;23;20172;-71
2023/04/18 14:22:57;;;;;;;9.80;8.20;;;;;;;;;;6246547;22;20497;-71
2023/04/18 14:26:01;;;;;;;11.37;8.13;;;;;;;;;;6228073;23;20192;-70
2023/04/18 14:29:05;;;;;;;8.97;7.07;;;;;;;;;;6238367;23;20592;-69
2023/04/18 14:32:09;;;;;;;13.03;8.23;;;;;;;;;;6247204;22;20191;-70
2023/04/18 14:35:14;;;;;;;10.03;7.83;;;;;;;;;;6228181;23;20473;-71
2023/04/18 14:38:18;;;;;;;11.20;7.93;;;;;;;;;;6256660;23;20156;-70
2023/04/18 14:41:22;;;;;;;9.37;7.50;;;;;;;;;;6234920;22;20187;-73
2023/04/18 14:44:28;;;;;;;11.03;7.73;;;;;;;;;;6246733;23;20230;-70
2023/04/18 14:47:33;;;;;;;10.60;8.30;;;;;;;;;;6238214;23;20155;-71
2023/04/18 14:50:38;;;;;;;11.17;7.97;;;;;;;;;;6256199;22;20156;-71
2023/04/18 14:53:43;;;;;;;13.77;7.63;;;;;;;;;;6256562;23;20156;-69
2023/04/18 14:56:47;;;;;;;11.23;8.23;;;;;;;;;;6256174;23;20151;-72
2023/04/18 14:59:53;;;;;;;10.10;7.33;;;;;;;;;;6238127;23;20592;-70
2023/04/18 15:02:57;;;;;;;11.37;8.10;;;;;;;;;;6246419;22;20640;-70
2023/04/18 15:06:01;;;;;;;11.10;7.80;;;;;;;;;;6256035;23;20184;-70
2023/04/18 15:09:06;;;;;;;9.93;7.47;;;;;;;;;;6237989;23;20155;-71
2023/04/18 15:12:10;;;;;;;12.67;8.10;;;;;;;;;;6231276;23;20187;-70
2023/04/18 15:15:14;;;;;;;9.60;7.57;;;;;;;;;;6220660;23;20155;-71
2023/04/18 15:18:19;;;;;;;10.20;8.27;;;;;;;;;;6256460;23;20148;-71
2023/04/18 15:21:23;;;;;;;9.67;7.23;;;;;;;;;;6252835;22;20187;-70
2023/04/18 15:24:27;;;;;;;9.93;7.10;;;;;;;;;;6256380;23;20159;-70
2023/04/18 15:27:31;;;;;;;9.57;7.27;;;;;;;;;;6256308;23;20155;-71
2023/04/18 15:30:35;;;;;;;9.00;6.90;;;;;;;;;;6256245;22;20156;-71
2023/04/18 15:33:39;;;;;;;11.07;7.63;;;;;;;;;;6220222;23;20152;-70
2023/04/18 15:36:45;;;;;;;10.93;7.83;;;;;;;;;;6256636;23;20148;-71
2023/04/18 15:39:50;;;;;;;9.97;6.97;;;;;;;;;;6237703;23;20152;-71
2023/04/18 15:42:54;;;;;;;24.93;11.43;;;;;;;;;;6246082;22;20191;-71
2023/04/18 15:45:59;;;;;;;11.27;7.30;;;;;;;;;;6256150;23;20191;-72
2023/04/18 15:49:03;;;;;;;11.33;8.33;;;;;;;;;;6256708;23;20156;-70
2023/04/18 15:52:07;;;;;;;11.23;7.87;;;;;;;;;;6249269;22;20195;-71
2023/04/18 15:55:11;;;;;;;9.77;7.73;;;;;;;;;;6228260;23;20183;-71
2023/04/18 15:58:16;;;;;;;9.90;7.80;;;;;;;;;;6255830;23;20156;-71
2023/04/18 16:01:20;;;;;;;10.40;8.50;;;;;;;;;;6252517;22;20194;-71
2023/04/18 16:04:24;;;;;;;9.90;8.17;;;;;;;;;;6255806;23;20151;-71
2023/04/18 16:07:28;;;;;;;11.33;8.33;;;;;;;;;;6219937;23;20627;-70
2023/04/18 16:10:32;;;;;;;10.80;9.17;;;;;;;;;;6237337;23;20156;-71
2023/04/18 16:13:36;;;;;;;11.40;8.77;;;;;;;;;;6256088;23;20151;-71
2023/04/18 16:16:40;;;;;;;11.87;8.00;;;;;;;;;;6255944;23;20148;-71
2023/04/18 16:19:45;;;;;;;11.33;8.60;;;;;;;;;;6255966;23;20152;-71
2023/04/18 16:22:49;;;;;;;10.33;8.37;;;;;;;;;;6227794;23;20187;-71
2023/04/18 16:25:54;;;;;;;9.43;7.87;;;;;;;;;;6255533;23;20179;-71
2023/04/18 16:28:57;;;;;;;9.50;7.90;;;;;;;;;;6256396;23;20585;-71
2023/04/18 16:32:01;;;;;;;9.73;8.17;;;;;;;;;;6231757;23;20187;-72
2023/04/18 16:35:08;;;;;;;10.87;8.30;;;;;;;;;;6237404;23;20156;-70
2023/04/18 16:38:13;;;;;;;9.83;7.93;;;;;;;;;;6210094;23;20163;-70
2023/04/18 16:41:17;;;;;;;10.77;8.27;;;;;;;;;;6252607;22;20195;-71
2023/04/18 16:44:21;;;;;;;10.53;8.63;;;;;;;;;;6237427;23;20597;-70
2023/04/18 16:47:25;;;;;;;10.07;8.20;;;;;;;;;;6255849;23;20183;-71
2023/04/18 16:50:29;;;;;;;11.30;8.67;;;;;;;;;;6255882;23;20155;-71
2023/04/18 16:53:33;;;;;;;10.40;8.10;;;;;;;;;;6226954;23;20168;-70
2023/04/18 16:56:37;;;;;;;11.13;8.60;;;;;;;;;;6245375;23;20171;-70
2023/04/18 16:59:42;;;;;;;11.20;9.20;;;;;;;;;;6237267;23;20156;-71
2023/04/18 17:02:47;;;;;;;12.83;10.40;;;;;;;;;;6229139;23;20191;-71
2023/04/18 17:05:51;;;;;;;11.37;9.37;;;;;;;;;;6257600;23;20606;-70
2023/04/18 17:08:56;;;;;;;13.23;9.00;;;;;;;;;;6257218;23;20155;-71
2023/04/18 17:12:00;;;;;;;12.33;9.43;;;;;;;;;;6251441;22;20686;-70
2023/04/18 17:15:05;;;;;;;10.90;9.37;;;;;;;;;;6257605;23;20156;-70
2023/04/18 17:18:10;;;;;;;12.30;9.73;;;;;;;;;;6221716;23;20152;-71
2023/04/18 17:21:14;;;;;;;13.07;9.83;;;;;;;;;;6254329;22;20191;-71
2023/04/18 17:24:21;;;;;;;12.03;9.23;;;;;;;;;;6228551;23;20171;-72
2023/04/18 17:27:25;;;;;;;11.17;9.00;;;;;;;;;;6228507;23;20191;-72
2023/04/18 17:30:30;;;;;;;12.50;8.97;;;;;;;;;;6238872;23;20151;-71
2023/04/18 17:33:34;;;;;;;10.50;8.30;;;;;;;;;;6257069;23;20593;-71
2023/04/18 17:36:38;;;;;;;10.47;7.93;;;;;;;;;;6257778;23;20588;-71
2023/04/18 17:39:42;;;;;;;10.23;7.63;;;;;;;;;;6247025;23;20167;-71
2023/04/18 17:42:46;;;;;;;9.27;7.53;;;;;;;;;;6247982;22;20515;-71
2023/04/18 17:45:50;;;;;;;8.90;7.20;;;;;;;;;;6239093;23;20446;-71
2023/04/18 17:48:54;;;;;;;8.97;7.20;;;;;;;;;;6257313;23;20155;-72
2023/04/18 17:51:59;;;;;;;11.77;7.87;;;;;;;;;;6251847;22;20187;-71
2023/04/18 17:55:04;;;;;;;11.10;8.77;;;;;;;;;;6251966;23;20628;-71
2023/04/18 17:58:08;;;;;;;9.67;7.53;;;;;;;;;;6238326;23;20156;-72
2023/04/18 18:01:13;;;;;;;10.07;7.83;;;;;;;;;;6254363;22;20656;-72
2023/04/18 18:04:18;;;;;;;10.27;8.10;;;;;;;;;;6238330;23;20159;-72
2023/04/18 18:07:22;;;;;;;10.37;7.97;;;;;;;;;;6238467;23;20179;-72